createdAt,value
2018-11-07T00:00:58.247Z,79.41
2018-11-07T00:01:58.379Z,78.64
2018-11-07T00:02:58.597Z,77.89
2018-11-07T00:03:58.673Z,77.22
2018-11-07T00:04:58.819Z,75.89
2018-11-07T00:05:58.969Z,75.89
2018-11-07T00:06:59.112Z,75.79
2018-11-07T00:07:59.332Z,74.47
2018-11-07T00:08:59.408Z,74.52
2018-11-07T00:09:59.554Z,74.15
2018-11-07T00:10:59.702Z,73.90
2018-11-07T00:11:59.852Z,73.96
2018-11-07T00:12:59.995Z,74.37
2018-11-07T00:14:00.189Z,73.10
2018-11-07T00:15:00.299Z,73.23
2018-11-07T00:16:00.438Z,73.42
2018-11-07T00:17:00.587Z,72.72
2018-11-07T00:18:00.736Z,72.34
2018-11-07T00:19:00.879Z,72.44
2018-11-07T00:20:01.027Z,72.47
2018-11-07T00:21:01.179Z,72.19
2018-11-07T00:22:01.334Z,72.28
2018-11-07T00:23:01.464Z,72.09
2018-11-07T00:24:01.612Z,72.38
2018-11-07T00:25:01.759Z,71.43
2018-11-07T00:26:01.903Z,70.95
2018-11-07T00:27:02.051Z,71.23
2018-11-07T00:28:02.197Z,70.67
2018-11-07T00:29:02.346Z,70.25
2018-11-07T00:30:02.536Z,69.96
2018-11-07T00:31:02.634Z,70.44
2018-11-07T00:32:02.787Z,69.78
2018-11-07T00:33:02.932Z,69.68
2018-11-07T00:34:03.078Z,69.87
2018-11-07T00:35:03.299Z,69.59
2018-11-07T00:36:03.371Z,70.48
2018-11-07T00:37:03.522Z,70.48
2018-11-07T00:38:03.669Z,70.15
2018-11-07T00:39:03.811Z,70.35
2018-11-07T00:40:03.961Z,70.48
2018-11-07T00:41:04.107Z,71.23
2018-11-07T00:42:04.258Z,70.95
2018-11-07T00:43:04.403Z,70.63
2018-11-07T00:44:04.549Z,70.54
2018-11-07T00:45:04.695Z,70.92
2018-11-07T00:46:04.845Z,70.92
2018-11-07T00:47:04.990Z,70.82
2018-11-07T00:48:05.138Z,71.33
2018-11-07T00:49:05.288Z,71.71
2018-11-07T00:50:05.627Z,72.38
2018-11-07T00:51:05.596Z,72.38
2018-11-07T00:52:05.723Z,73.33
2018-11-07T00:53:05.906Z,74.08
2018-11-07T00:54:06.010Z,74.90
2018-11-07T00:55:06.154Z,73.86
2018-11-07T00:56:06.300Z,74.05
2018-11-07T00:57:06.451Z,74.43
2018-11-07T00:58:06.593Z,74.81
2018-11-07T00:59:06.743Z,75.19
2018-11-07T01:00:06.887Z,75.28
2018-11-07T01:01:07.038Z,75.00
2018-11-07T01:02:07.179Z,75.38
2018-11-07T01:03:07.325Z,75.19
2018-11-07T01:04:07.472Z,75.67
2018-11-07T01:05:07.618Z,75.38
2018-11-07T01:06:07.764Z,75.47
2018-11-07T01:07:07.912Z,75.95
2018-11-07T01:08:08.058Z,76.23
2018-11-07T01:09:08.208Z,76.14
2018-11-07T01:10:08.358Z,76.61
2018-11-07T01:11:08.500Z,76.23
2018-11-07T01:12:08.646Z,76.42
2018-11-07T01:13:08.796Z,76.71
2018-11-07T01:14:08.942Z,76.52
2018-11-07T01:15:09.085Z,76.23
2018-11-07T01:16:09.231Z,75.95
2018-11-07T01:17:09.380Z,75.28
2018-11-07T01:18:09.524Z,75.76
2018-11-07T01:19:09.671Z,75.57
2018-11-07T01:20:09.817Z,76.42
2018-11-07T01:21:09.967Z,76.71
2018-11-07T01:22:10.159Z,76.32
2018-11-07T01:23:10.260Z,76.61
2018-11-07T01:24:10.407Z,76.61
2018-11-07T01:25:10.556Z,76.52
2018-11-07T01:26:10.702Z,76.23
2018-11-07T01:27:10.851Z,76.61
2018-11-07T01:28:11.016Z,76.90
2018-11-07T01:29:11.144Z,77.28
2018-11-07T01:30:11.290Z,77.18
2018-11-07T01:31:11.438Z,77.09
2018-11-07T01:32:11.585Z,77.47
2018-11-07T01:33:11.733Z,78.03
2018-11-07T01:34:11.879Z,78.80
2018-11-07T01:35:12.028Z,78.80
2018-11-07T01:36:12.174Z,79.27
2018-11-07T01:37:12.318Z,79.74
2018-11-07T01:38:12.468Z,79.55
2018-11-07T01:39:12.612Z,79.27
2018-11-07T01:40:12.761Z,78.89
2018-11-07T01:41:12.908Z,79.08
2018-11-07T01:42:13.127Z,78.51
2018-11-07T01:43:13.200Z,78.28
2018-11-07T01:44:13.349Z,78.09
2018-11-07T01:45:13.498Z,77.81
2018-11-07T01:46:13.646Z,77.90
2018-11-07T01:47:13.793Z,78.38
2018-11-07T01:48:13.940Z,77.71
2018-11-07T01:49:14.087Z,77.81
2018-11-07T01:50:14.252Z,77.62
2018-11-07T01:51:14.378Z,77.62
2018-11-07T01:52:14.525Z,77.62
2018-11-07T01:53:14.671Z,77.24
2018-11-07T01:54:14.817Z,76.67
2018-11-07T01:55:14.969Z,76.20
2018-11-07T01:56:15.110Z,76.39
2018-11-07T01:57:15.259Z,76.29
2018-11-07T01:58:15.409Z,76.39
2018-11-07T01:59:15.554Z,76.29
2018-11-07T02:00:15.703Z,75.72
2018-11-07T02:01:15.847Z,75.62
2018-11-07T02:02:15.994Z,76.01
2018-11-07T02:03:16.142Z,75.72
2018-11-07T02:04:16.287Z,75.91
2018-11-07T02:05:16.434Z,76.01
2018-11-07T02:06:16.583Z,75.91
2018-11-07T02:07:16.729Z,75.72
2018-11-07T02:08:16.877Z,75.15
2018-11-07T02:09:17.022Z,75.43
2018-11-07T02:10:17.169Z,74.87
2018-11-07T02:11:17.320Z,75.24
2018-11-07T02:12:17.458Z,76.01
2018-11-07T02:13:17.606Z,76.57
2018-11-07T02:14:17.755Z,76.57
2018-11-07T02:15:17.899Z,77.43
2018-11-07T02:16:18.046Z,78.00
2018-11-07T02:17:18.191Z,77.90
2018-11-07T02:18:18.341Z,78.13
2018-11-07T02:19:18.487Z,78.85
2018-11-07T02:20:18.631Z,79.42
2018-11-07T02:21:18.779Z,79.61
2018-11-07T02:22:18.925Z,79.99
2018-11-07T02:23:19.072Z,79.90
2018-11-07T02:24:19.219Z,80.37
2018-11-07T02:25:19.365Z,81.23
2018-11-07T02:26:19.545Z,81.51
2018-11-07T02:27:19.661Z,81.79
2018-11-07T02:28:19.808Z,81.41
2018-11-07T02:29:19.954Z,82.08
2018-11-07T02:30:20.101Z,82.08
2018-11-07T02:31:20.248Z,81.79
2018-11-07T02:32:20.397Z,81.41
2018-11-07T02:33:20.542Z,81.13
2018-11-07T02:34:20.695Z,80.75
2018-11-07T02:35:20.837Z,80.75
2018-11-07T02:36:20.986Z,79.90
2018-11-07T02:37:21.131Z,79.23
2018-11-07T02:38:21.277Z,79.42
2018-11-07T02:39:21.426Z,79.23
2018-11-07T02:40:21.570Z,79.71
2018-11-07T02:41:21.717Z,79.61
2018-11-07T02:42:21.864Z,80.46
2018-11-07T02:43:22.009Z,80.94
2018-11-07T02:44:22.155Z,81.23
2018-11-07T02:45:22.303Z,80.94
2018-11-07T02:46:22.454Z,81.70
2018-11-07T02:47:22.598Z,81.04
2018-11-07T02:48:22.748Z,81.13
2018-11-07T02:49:22.891Z,81.23
2018-11-07T02:50:23.039Z,81.23
2018-11-07T02:51:23.184Z,80.46
2018-11-07T02:52:23.329Z,81.04
2018-11-07T02:53:23.600Z,81.04
2018-11-07T02:54:23.622Z,81.13
2018-11-07T02:55:23.769Z,81.79
2018-11-07T02:56:23.915Z,81.88
2018-11-07T02:57:24.060Z,81.88
2018-11-07T02:58:24.210Z,81.32
2018-11-07T02:59:24.356Z,80.94
2018-11-07T03:00:24.503Z,81.13
2018-11-07T03:01:24.696Z,81.13
2018-11-07T03:02:24.800Z,81.32
2018-11-07T03:03:24.944Z,81.51
2018-11-07T03:04:25.090Z,81.51
2018-11-07T03:05:25.235Z,82.17
2018-11-07T03:06:25.383Z,81.88
2018-11-07T03:07:25.530Z,82.55
2018-11-07T03:08:25.680Z,82.36
2018-11-07T03:09:25.828Z,83.22
2018-11-07T03:10:25.979Z,82.74
2018-11-07T03:11:26.116Z,82.93
2018-11-07T03:12:26.265Z,82.17
2018-11-07T03:13:26.413Z,81.51
2018-11-07T03:14:26.560Z,81.70
2018-11-07T03:15:26.708Z,81.60
2018-11-07T03:16:26.852Z,81.60
2018-11-07T03:17:27.002Z,81.51
2018-11-07T03:18:27.146Z,81.32
2018-11-07T03:19:27.294Z,81.36
2018-11-07T03:20:27.444Z,81.51
2018-11-07T03:21:27.594Z,81.23
2018-11-07T03:22:27.740Z,81.13
2018-11-07T03:23:27.884Z,81.70
2018-11-07T03:24:28.029Z,80.65
2018-11-07T03:25:28.178Z,79.71
2018-11-07T03:26:28.324Z,79.33
2018-11-07T03:27:28.472Z,79.23
2018-11-07T03:28:28.615Z,79.23
2018-11-07T03:29:28.766Z,78.38
2018-11-07T03:30:28.909Z,78.19
2018-11-07T03:31:29.057Z,78.00
2018-11-07T03:32:29.205Z,77.62
2018-11-07T03:33:29.351Z,77.43
2018-11-07T03:34:29.502Z,77.14
2018-11-07T03:35:29.642Z,77.81
2018-11-07T03:36:29.795Z,77.81
2018-11-07T03:37:29.936Z,77.05
2018-11-07T03:38:30.084Z,76.95
2018-11-07T03:39:30.294Z,77.05
2018-11-07T03:40:30.381Z,76.57
2018-11-07T03:41:30.529Z,76.20
2018-11-07T03:42:30.674Z,76.29
2018-11-07T03:43:30.828Z,75.91
2018-11-07T03:44:30.971Z,75.81
2018-11-07T03:45:31.118Z,75.72
2018-11-07T03:46:31.265Z,75.53
2018-11-07T03:47:31.417Z,75.24
2018-11-07T03:48:31.563Z,75.62
2018-11-07T03:49:31.709Z,75.72
2018-11-07T03:50:31.856Z,75.62
2018-11-07T03:51:32.006Z,75.34
2018-11-07T03:52:32.151Z,75.24
2018-11-07T03:53:32.297Z,75.34
2018-11-07T03:54:32.444Z,74.96
2018-11-07T03:55:32.592Z,75.05
2018-11-07T03:56:32.740Z,76.10
2018-11-07T03:57:32.885Z,75.34
2018-11-07T03:58:33.034Z,75.43
2018-11-07T03:59:33.179Z,75.62
2018-11-07T04:00:33.325Z,75.72
2018-11-07T04:01:33.476Z,76.29
2018-11-07T04:02:33.625Z,76.20
2018-11-07T04:03:33.771Z,77.52
2018-11-07T04:04:34.005Z,77.43
2018-11-07T04:05:34.067Z,77.05
2018-11-07T04:06:34.212Z,77.43
2018-11-07T04:07:34.360Z,77.14
2018-11-07T04:08:34.507Z,77.62
2018-11-07T04:09:34.654Z,77.81
2018-11-07T04:10:34.798Z,77.71
2018-11-07T04:11:34.944Z,77.71
2018-11-07T04:12:35.092Z,77.81
2018-11-07T04:13:35.241Z,77.43
2018-11-07T04:14:35.385Z,76.86
2018-11-07T04:15:35.531Z,76.20
2018-11-07T04:16:35.681Z,75.81
2018-11-07T04:17:35.828Z,76.01
2018-11-07T04:18:35.976Z,75.72
2018-11-07T04:19:36.123Z,75.53
2018-11-07T04:20:36.270Z,75.62
2018-11-07T04:21:36.416Z,75.43
2018-11-07T04:22:36.565Z,75.15
2018-11-07T04:23:36.712Z,74.58
2018-11-07T04:24:36.864Z,74.58
2018-11-07T04:25:37.006Z,74.68
2018-11-07T04:26:37.156Z,74.77
2018-11-07T04:27:37.302Z,75.34
2018-11-07T04:28:37.450Z,75.24
2018-11-07T04:29:37.599Z,74.77
2018-11-07T04:30:37.743Z,75.24
2018-11-07T04:31:37.888Z,75.43
2018-11-07T04:32:38.037Z,75.91
2018-11-07T04:33:38.185Z,76.01
2018-11-07T04:34:38.333Z,75.81
2018-11-07T04:35:38.480Z,75.43
2018-11-07T04:36:38.630Z,75.34
2018-11-07T04:37:38.775Z,74.77
2018-11-07T04:38:38.925Z,74.39
2018-11-07T04:39:39.071Z,74.77
2018-11-07T04:40:39.217Z,74.96
2018-11-07T04:41:39.364Z,74.68
2018-11-07T04:42:39.514Z,73.92
2018-11-07T04:43:39.661Z,74.11
2018-11-07T04:44:39.808Z,74.58
2018-11-07T04:45:39.954Z,74.39
2018-11-07T04:46:40.108Z,74.58
2018-11-07T04:47:40.247Z,74.58
2018-11-07T04:48:40.394Z,74.58
2018-11-07T04:49:40.544Z,74.49
2018-11-07T04:50:40.691Z,74.39
2018-11-07T04:51:40.839Z,74.11
2018-11-07T04:52:40.986Z,73.72
2018-11-07T04:53:41.132Z,73.35
2018-11-07T04:54:41.288Z,73.35
2018-11-07T04:55:41.424Z,72.97
2018-11-07T04:56:41.571Z,73.54
2018-11-07T04:57:41.718Z,73.35
2018-11-07T04:58:41.867Z,73.72
2018-11-07T04:59:42.015Z,73.72
2018-11-07T05:00:42.163Z,73.92
2018-11-07T05:01:42.309Z,74.01
2018-11-07T05:02:42.444Z,74.01
2018-11-07T05:03:42.589Z,74.01
2018-11-07T05:04:42.740Z,74.30
2018-11-07T05:05:42.884Z,74.49
2018-11-07T05:06:43.031Z,74.49
2018-11-07T05:07:43.176Z,73.82
2018-11-07T05:08:43.398Z,73.72
2018-11-07T05:09:43.471Z,74.01
2018-11-07T05:10:43.621Z,73.72
2018-11-07T05:11:43.765Z,73.44
2018-11-07T05:12:43.913Z,72.97
2018-11-07T05:13:44.062Z,72.88
2018-11-07T05:14:44.210Z,72.78
2018-11-07T05:15:44.355Z,72.88
2018-11-07T05:16:44.502Z,72.78
2018-11-07T05:17:44.648Z,73.16
2018-11-07T05:18:44.798Z,72.40
2018-11-07T05:19:45.023Z,71.92
2018-11-07T05:20:45.091Z,71.45
2018-11-07T05:21:45.239Z,71.64
2018-11-07T05:22:45.386Z,71.92
2018-11-07T05:23:45.532Z,72.78
2018-11-07T05:24:45.680Z,72.49
2018-11-07T05:25:45.826Z,72.68
2018-11-07T05:26:45.977Z,73.44
2018-11-07T05:27:46.118Z,73.25
2018-11-07T05:28:46.268Z,73.92
2018-11-07T05:29:46.412Z,74.68
2018-11-07T05:30:46.557Z,74.77
2018-11-07T05:31:46.711Z,75.15
2018-11-07T05:32:46.853Z,75.53
2018-11-07T05:33:47.002Z,75.81
2018-11-07T05:34:47.808Z,75.81
2018-11-07T05:35:47.509Z,75.91
2018-11-07T05:36:47.437Z,76.20
2018-11-07T05:37:47.583Z,76.29
2018-11-07T05:38:48.079Z,76.29
2018-11-07T05:39:47.893Z,76.67
2018-11-07T05:40:48.046Z,77.62
2018-11-07T05:41:48.184Z,77.62
2018-11-07T05:42:48.370Z,77.43
2018-11-07T05:43:48.476Z,77.43
2018-11-07T05:44:48.615Z,77.24
2018-11-07T05:45:48.741Z,77.14
2018-11-07T05:46:48.887Z,77.43
2018-11-07T05:47:49.036Z,77.62
2018-11-07T05:48:49.198Z,76.86
2018-11-07T05:49:49.332Z,77.33
2018-11-07T05:50:49.476Z,77.81
2018-11-07T05:51:49.618Z,78.28
2018-11-07T05:52:49.775Z,78.19
2018-11-07T05:53:49.922Z,78.56
2018-11-07T05:54:50.081Z,78.66
2018-11-07T05:55:50.218Z,79.33
2018-11-07T05:56:50.365Z,79.42
2018-11-07T05:57:50.509Z,79.42
2018-11-07T05:58:50.658Z,79.52
2018-11-07T05:59:50.805Z,79.52
2018-11-07T06:00:50.955Z,78.47
2018-11-07T06:01:51.099Z,78.47
2018-11-07T06:02:51.246Z,79.23
2018-11-07T06:03:51.395Z,78.28
2018-11-07T06:04:51.545Z,77.71
2018-11-07T06:05:51.688Z,77.24
2018-11-07T06:06:51.835Z,76.57
2018-11-07T06:07:51.983Z,76.57
2018-11-07T06:08:52.133Z,76.39
2018-11-07T06:09:52.280Z,76.57
2018-11-07T06:10:52.424Z,77.05
2018-11-07T06:11:52.569Z,77.24
2018-11-07T06:12:52.718Z,77.33
2018-11-07T06:13:52.864Z,77.90
2018-11-07T06:14:53.011Z,78.09
2018-11-07T06:15:53.192Z,77.90
2018-11-07T06:16:53.304Z,77.05
2018-11-07T06:17:53.452Z,77.24
2018-11-07T06:18:53.599Z,76.48
2018-11-07T06:19:53.746Z,75.78
2018-11-07T06:20:53.892Z,75.02
2018-11-07T06:21:54.034Z,74.45
2018-11-07T06:22:54.218Z,73.69
2018-11-07T06:23:54.325Z,73.54
2018-11-07T06:24:54.504Z,73.69
2018-11-07T06:25:54.620Z,73.41
2018-11-07T06:26:54.765Z,72.93
2018-11-07T06:27:54.910Z,72.74
2018-11-07T06:28:55.058Z,72.74
2018-11-07T06:29:55.204Z,72.59
2018-11-07T06:30:55.394Z,73.07
2018-11-07T06:31:55.497Z,73.79
2018-11-07T06:32:55.650Z,74.16
2018-11-07T06:33:55.845Z,74.26
2018-11-07T06:34:55.941Z,73.97
2018-11-07T06:35:56.091Z,73.88
2018-11-07T06:36:56.234Z,73.69
2018-11-07T06:37:56.379Z,73.35
2018-11-07T06:38:56.526Z,73.54
2018-11-07T06:39:56.673Z,73.63
2018-11-07T06:40:56.825Z,73.72
2018-11-07T06:41:56.970Z,73.54
2018-11-07T06:42:57.114Z,73.72
2018-11-07T06:43:57.260Z,74.49
2018-11-07T06:44:57.411Z,74.77
2018-11-07T06:45:57.555Z,74.87
2018-11-07T06:46:57.702Z,75.15
2018-11-07T06:47:57.850Z,75.81
2018-11-07T06:48:57.996Z,76.01
2018-11-07T06:49:58.145Z,76.10
2018-11-07T06:50:58.295Z,76.76
2018-11-07T06:51:58.436Z,76.76
2018-11-07T06:52:58.585Z,77.52
2018-11-07T06:53:58.729Z,76.95
2018-11-07T06:54:58.877Z,76.86
2018-11-07T06:55:59.027Z,77.05
2018-11-07T06:56:59.171Z,76.57
2018-11-07T06:57:59.320Z,77.05
2018-11-07T06:58:59.468Z,76.86
2018-11-07T06:59:59.613Z,77.33
2018-11-07T07:00:59.761Z,77.90
2018-11-07T07:01:59.910Z,77.90
2018-11-07T07:03:00.056Z,78.09
2018-11-07T07:04:00.206Z,78.95
2018-11-07T07:05:00.345Z,78.38
2018-11-07T07:06:00.488Z,77.90
2018-11-07T07:07:00.642Z,78.75
2018-11-07T07:08:00.791Z,78.85
2018-11-07T07:09:00.938Z,78.47
2018-11-07T07:10:01.085Z,78.38
2018-11-07T07:11:01.235Z,78.85
2018-11-07T07:12:01.385Z,78.09
2018-11-07T07:13:01.526Z,78.38
2018-11-07T07:14:01.676Z,78.85
2018-11-07T07:15:01.829Z,79.14
2018-11-07T07:16:01.974Z,79.04
2018-11-07T07:17:02.118Z,79.42
2018-11-07T07:18:02.324Z,80.18
2018-11-07T07:19:02.411Z,79.61
2018-11-07T07:20:02.558Z,80.08
2018-11-07T07:21:02.707Z,79.52
2018-11-07T07:22:02.855Z,79.90
2018-11-07T07:23:03.000Z,79.99
2018-11-07T07:24:03.147Z,79.80
2018-11-07T07:25:03.295Z,80.27
2018-11-07T07:26:03.442Z,79.52
2018-11-07T07:27:03.588Z,79.14
2018-11-07T07:28:03.737Z,78.38
2018-11-07T07:29:03.880Z,78.28
2018-11-07T07:30:04.075Z,77.90
2018-11-07T07:31:04.176Z,77.62
2018-11-07T07:32:04.328Z,77.43
2018-11-07T07:33:04.490Z,77.01
2018-11-07T07:34:04.621Z,76.63
2018-11-07T07:35:04.768Z,75.96
2018-11-07T07:36:04.916Z,75.72
2018-11-07T07:37:05.063Z,76.01
2018-11-07T07:38:05.209Z,75.59
2018-11-07T07:39:05.357Z,75.34
2018-11-07T07:40:05.504Z,75.43
2018-11-07T07:41:05.640Z,75.05
2018-11-07T07:42:05.790Z,74.77
2018-11-07T07:43:05.936Z,74.87
2018-11-07T07:44:06.079Z,74.87
2018-11-07T07:45:06.227Z,75.43
2018-11-07T07:46:06.376Z,75.15
2018-11-07T07:47:06.520Z,75.43
2018-11-07T07:48:06.667Z,75.24
2018-11-07T07:49:06.821Z,75.34
2018-11-07T07:50:06.961Z,75.43
2018-11-07T07:51:07.108Z,75.91
2018-11-07T07:52:07.255Z,76.86
2018-11-07T07:53:07.450Z,77.05
2018-11-07T07:54:07.549Z,77.62
2018-11-07T07:55:07.697Z,78.00
2018-11-07T07:56:07.846Z,78.13
2018-11-07T07:57:07.995Z,80.37
2018-11-07T07:58:08.140Z,82.17
2018-11-07T07:59:08.287Z,82.55
2018-11-07T08:00:08.433Z,81.51
2018-11-07T08:01:08.580Z,80.88
2018-11-07T08:02:08.725Z,80.98
2018-11-07T08:03:08.874Z,81.04
2018-11-07T08:04:09.022Z,81.07
2018-11-07T08:05:09.167Z,80.98
2018-11-07T08:06:09.319Z,81.17
2018-11-07T08:07:09.540Z,81.74
2018-11-07T08:08:09.611Z,82.78
2018-11-07T08:09:09.757Z,83.92
2018-11-07T08:10:09.904Z,84.11
2018-11-07T08:11:10.051Z,85.06
2018-11-07T08:12:10.199Z,86.77
2018-11-07T08:13:10.348Z,86.96
2018-11-07T08:14:10.503Z,86.96
2018-11-07T08:15:10.645Z,86.01
2018-11-07T08:16:10.790Z,86.39
2018-11-07T08:17:10.938Z,86.11
2018-11-07T08:18:11.093Z,86.39
2018-11-07T08:19:11.235Z,86.11
2018-11-07T08:20:11.382Z,86.82
2018-11-07T08:21:11.587Z,88.39
2018-11-07T08:22:11.678Z,87.48
2018-11-07T08:23:11.826Z,87.95
2018-11-07T08:24:11.974Z,89.57
2018-11-07T08:25:12.119Z,91.19
2018-11-07T08:26:12.268Z,90.19
2018-11-07T08:27:12.416Z,89.72
2018-11-07T08:28:12.565Z,90.28
2018-11-07T08:29:12.713Z,88.86
2018-11-07T08:30:12.860Z,88.48
2018-11-07T08:31:13.007Z,88.95
2018-11-07T08:32:13.154Z,87.82
2018-11-07T08:33:13.301Z,88.39
2018-11-07T08:34:13.452Z,87.91
2018-11-07T08:35:13.603Z,87.91
2018-11-07T08:36:13.749Z,86.77
2018-11-07T08:37:13.898Z,85.44
2018-11-07T08:38:14.045Z,84.59
2018-11-07T08:39:14.193Z,84.87
2018-11-07T08:40:14.338Z,85.72
2018-11-07T08:41:14.489Z,87.34
2018-11-07T08:42:14.642Z,85.44
2018-11-07T08:43:14.791Z,83.92
2018-11-07T08:44:14.938Z,82.97
2018-11-07T08:45:15.083Z,83.11
2018-11-07T08:46:15.232Z,84.06
2018-11-07T08:47:15.381Z,84.06
2018-11-07T08:48:15.596Z,85.86
2018-11-07T08:49:15.678Z,85.91
2018-11-07T08:50:15.825Z,84.59
2018-11-07T08:51:15.987Z,85.63
2018-11-07T08:52:16.121Z,85.53
2018-11-07T08:53:16.265Z,84.30
2018-11-07T08:54:16.413Z,84.44
2018-11-07T08:55:16.563Z,84.72
2018-11-07T08:56:16.712Z,84.91
2018-11-07T08:57:16.858Z,85.77
2018-11-07T08:58:17.008Z,87.19
2018-11-07T08:59:17.155Z,87.57
2018-11-07T09:00:17.305Z,89.00
2018-11-07T09:01:17.473Z,89.95
2018-11-07T09:02:17.631Z,88.71
2018-11-07T09:03:17.750Z,90.52
2018-11-07T09:04:17.899Z,91.09
2018-11-07T09:05:18.047Z,90.80
2018-11-07T09:06:18.197Z,89.95
2018-11-07T09:07:18.346Z,89.67
2018-11-07T09:08:18.495Z,90.61
2018-11-07T09:09:18.642Z,91.85
2018-11-07T09:10:18.790Z,91.94
2018-11-07T09:11:18.938Z,93.08
2018-11-07T09:12:19.086Z,93.56
2018-11-07T09:13:19.235Z,93.75
2018-11-07T09:14:19.383Z,93.37
2018-11-07T09:15:19.530Z,94.98
2018-11-07T09:16:19.679Z,94.79
2018-11-07T09:17:19.830Z,94.60
2018-11-07T09:18:19.978Z,95.41
2018-11-07T09:19:20.124Z,95.03
2018-11-07T09:20:20.278Z,95.79
2018-11-07T09:21:20.425Z,97.12
2018-11-07T09:22:20.574Z,96.74
2018-11-07T09:23:20.723Z,97.55
2018-11-07T09:24:20.936Z,99.26
2018-11-07T09:25:21.018Z,98.07
2018-11-07T09:26:21.170Z,99.26
2018-11-07T09:27:21.321Z,97.78
2018-11-07T09:28:21.468Z,97.08
2018-11-07T09:29:21.671Z,99.88
2018-11-07T09:30:21.765Z,99.26
2018-11-07T09:31:21.961Z,99.99
2018-11-07T09:32:22.062Z,99.99
2018-11-07T09:33:22.213Z,99.99
2018-11-07T09:34:22.359Z,99.99
2018-11-07T09:35:22.504Z,99.99
2018-11-07T09:36:22.655Z,99.99
2018-11-07T09:37:22.804Z,99.99
2018-11-07T09:38:22.953Z,99.99
2018-11-07T09:39:23.100Z,99.99
2018-11-07T09:40:23.249Z,99.99
2018-11-07T09:41:23.399Z,99.99
2018-11-07T09:42:23.549Z,99.99
2018-11-07T09:43:23.696Z,99.99
2018-11-07T09:44:23.844Z,99.99
2018-11-07T09:45:23.993Z,99.99
2018-11-07T09:46:24.144Z,99.07
2018-11-07T09:47:24.306Z,98.97
2018-11-07T09:48:24.609Z,99.36
2018-11-07T09:49:24.589Z,99.99
2018-11-07T09:50:24.736Z,99.99
2018-11-07T09:51:24.884Z,99.93
2018-11-07T09:52:25.036Z,99.99
2018-11-07T09:53:25.184Z,99.84
2018-11-07T09:54:25.399Z,99.99
2018-11-07T09:55:25.480Z,99.99
2018-11-07T09:56:25.628Z,99.99
2018-11-07T09:57:25.777Z,99.99
2018-11-07T09:58:25.926Z,99.99
2018-11-07T09:59:26.140Z,99.99
2018-11-07T10:00:26.224Z,99.99
2018-11-07T10:01:26.379Z,99.99
2018-11-07T10:02:26.521Z,99.99
2018-11-07T10:03:26.671Z,99.99
2018-11-07T10:04:26.819Z,99.99
2018-11-07T10:05:27.018Z,99.99
2018-11-07T10:06:27.135Z,99.99
2018-11-07T10:07:27.267Z,99.99
2018-11-07T10:08:27.417Z,99.99
2018-11-07T10:09:27.565Z,99.99
2018-11-07T10:10:27.717Z,99.99
2018-11-07T10:11:27.866Z,99.99
2018-11-07T10:12:28.049Z,99.99
2018-11-07T10:13:28.165Z,99.99
2018-11-07T10:14:28.315Z,99.99
2018-11-07T10:15:28.464Z,99.99
2018-11-07T10:16:28.612Z,99.99
2018-11-07T10:17:28.762Z,99.99
2018-11-07T10:18:28.908Z,99.99
2018-11-07T10:19:29.064Z,99.99
2018-11-07T10:20:29.268Z,99.99
2018-11-07T10:21:29.343Z,99.99
2018-11-07T10:22:29.492Z,99.99
2018-11-07T10:23:29.642Z,99.99
2018-11-07T10:24:29.792Z,99.99
2018-11-07T10:25:29.944Z,99.99
2018-11-07T10:26:30.092Z,99.99
2018-11-07T10:27:30.504Z,99.99
2018-11-07T10:28:30.496Z,99.99
2018-11-07T10:29:30.742Z,99.99
2018-11-07T10:30:30.778Z,99.99
2018-11-07T10:31:30.833Z,99.99
2018-11-07T10:32:30.982Z,99.99
2018-11-07T10:33:31.130Z,99.99
2018-11-07T10:34:31.304Z,99.99
2018-11-07T10:35:31.428Z,99.99
2018-11-07T10:36:31.581Z,99.99
2018-11-07T10:37:32.842Z,99.99
2018-11-07T10:38:32.021Z,99.99
2018-11-07T10:39:32.037Z,99.99
2018-11-07T10:40:32.185Z,99.99
2018-11-07T10:41:32.332Z,99.99
2018-11-07T10:42:32.483Z,99.99
2018-11-07T10:43:32.632Z,99.99
2018-11-07T10:44:32.826Z,99.99
2018-11-07T10:45:32.931Z,99.99
2018-11-07T10:46:33.082Z,99.99
2018-11-07T10:47:33.233Z,99.99
2018-11-07T10:48:33.383Z,99.99
2018-11-07T10:49:33.536Z,99.99
2018-11-07T10:50:33.688Z,99.99
2018-11-07T10:51:33.838Z,99.99
2018-11-07T10:52:33.996Z,99.99
2018-11-07T10:53:34.136Z,99.99
2018-11-07T10:54:34.286Z,99.99
2018-11-07T10:55:34.442Z,99.99
2018-11-07T10:56:34.592Z,99.99
2018-11-07T10:57:34.742Z,99.99
2018-11-07T10:58:34.893Z,99.99
2018-11-07T10:59:35.045Z,99.99
2018-11-07T11:00:35.201Z,99.99
2018-11-07T11:01:35.343Z,99.99
2018-11-07T11:02:35.495Z,99.99
2018-11-07T11:03:35.652Z,99.99
2018-11-07T11:04:35.797Z,99.99
2018-11-07T11:05:35.946Z,99.99
2018-11-07T11:06:36.096Z,99.99
2018-11-07T11:07:36.249Z,99.99
2018-11-07T11:08:36.400Z,99.99
2018-11-07T11:09:36.554Z,99.99
2018-11-07T11:10:36.705Z,99.99
2018-11-07T11:11:36.858Z,99.99
2018-11-07T11:12:37.011Z,99.99
2018-11-07T11:13:37.163Z,99.99
2018-11-07T11:14:37.315Z,99.99
2018-11-07T11:15:37.467Z,99.99
2018-11-07T11:16:37.628Z,99.99
2018-11-07T11:17:37.772Z,99.99
2018-11-07T11:18:37.920Z,99.99
2018-11-07T11:19:38.071Z,99.99
2018-11-07T11:20:38.224Z,99.99
2018-11-07T11:21:38.375Z,99.99
2018-11-07T11:22:38.526Z,99.99
2018-11-07T11:23:38.681Z,99.99
2018-11-07T11:24:38.833Z,99.99
2018-11-07T11:25:38.995Z,99.99
2018-11-07T11:26:39.140Z,99.99
2018-11-07T11:27:39.291Z,99.99
2018-11-07T11:28:39.444Z,99.99
2018-11-07T11:29:39.598Z,99.99
2018-11-07T11:30:39.750Z,99.99
2018-11-07T11:31:39.906Z,99.99
2018-11-07T11:32:40.059Z,99.99
2018-11-07T11:33:40.222Z,99.99
2018-11-07T11:34:40.446Z,99.99
2018-11-07T11:35:40.519Z,99.99
2018-11-07T11:36:40.668Z,99.99
2018-11-07T11:37:40.822Z,99.99
2018-11-07T11:38:40.978Z,99.99
2018-11-07T11:39:41.128Z,98.81
2018-11-07T11:40:41.319Z,98.91
2018-11-07T11:41:41.482Z,96.18
2018-11-07T11:42:41.582Z,92.25
2018-11-07T11:43:41.759Z,89.28
2018-11-07T11:44:41.884Z,87.94
2018-11-07T11:45:42.186Z,88.80
2018-11-07T11:46:42.200Z,88.42
2018-11-07T11:47:42.367Z,88.51
2018-11-07T11:48:42.498Z,88.65
2018-11-07T11:49:42.649Z,92.34
2018-11-07T11:50:42.801Z,83.61
2018-11-07T11:51:42.953Z,82.12
2018-11-07T11:52:43.111Z,80.63
2018-11-07T11:53:43.260Z,77.96
2018-11-07T11:54:43.413Z,73.97
2018-11-07T11:55:43.564Z,67.36
2018-11-07T11:56:43.714Z,64.66
2018-11-07T11:57:43.873Z,65.08
2018-11-07T11:58:44.078Z,64.86
2018-11-07T11:59:44.603Z,62.28
2018-11-07T12:00:44.327Z,60.06
2018-11-07T12:01:44.483Z,58.57
2018-11-07T12:02:44.635Z,57.51
2018-11-07T12:03:44.790Z,56.90
2018-11-07T12:04:44.946Z,56.99
2018-11-07T12:05:45.102Z,58.12
2018-11-07T12:06:45.257Z,55.51
2018-11-07T12:07:45.412Z,55.89
2018-11-07T12:08:45.594Z,55.76
2018-11-07T12:09:45.724Z,53.85
2018-11-07T12:10:45.876Z,52.90
2018-11-07T12:11:46.055Z,52.85
2018-11-07T12:12:46.196Z,52.29
2018-11-07T12:13:46.343Z,52.42
2018-11-07T12:14:46.495Z,51.47
2018-11-07T12:15:46.651Z,50.48
2018-11-07T12:16:46.810Z,50.57
2018-11-07T12:17:47.010Z,49.12
2018-11-07T12:18:47.133Z,49.22
2018-11-07T12:19:47.287Z,50.35
2018-11-07T12:20:47.443Z,50.29
2018-11-07T12:21:47.603Z,51.57
2018-11-07T12:22:47.756Z,48.88
2018-11-07T12:23:47.911Z,48.59
2018-11-07T12:24:48.070Z,49.29
2018-11-07T12:25:48.226Z,52.29
2018-11-07T12:26:48.439Z,55.42
2018-11-07T12:27:48.544Z,57.90
2018-11-07T12:28:48.699Z,58.55
2018-11-07T12:29:48.854Z,60.00
2018-11-07T12:30:49.013Z,59.03
2018-11-07T12:31:49.153Z,58.29
2018-11-07T12:32:49.310Z,58.10
2018-11-07T12:33:49.469Z,58.00
2018-11-07T12:34:49.625Z,58.77
2018-11-07T12:35:49.807Z,57.84
2018-11-07T12:36:49.961Z,57.54
2018-11-07T12:37:50.119Z,56.81
2018-11-07T12:38:50.277Z,58.49
2018-11-07T12:39:50.435Z,59.78
2018-11-07T12:40:50.593Z,61.03
2018-11-07T12:41:50.758Z,60.74
2018-11-07T12:42:50.980Z,60.71
2018-11-07T12:43:51.070Z,61.45
2018-11-07T12:44:51.228Z,62.29
2018-11-07T12:45:51.389Z,63.41
2018-11-07T12:46:51.551Z,64.05
2018-11-07T12:47:51.713Z,65.37
2018-11-07T12:48:51.869Z,64.69
2018-11-07T12:49:52.053Z,64.40
2018-11-07T12:50:52.189Z,64.50
2018-11-07T12:51:52.349Z,64.15
2018-11-07T12:52:52.508Z,63.79
2018-11-07T12:53:52.671Z,62.64
2018-11-07T12:54:52.836Z,61.61